Time;durP1;ratioP1;P1;durP2;ratioP2;P2;SDS_P1;SDS_P2;PMS_P1;PMS_P2;Temp;Humidity;BMP_temperature;BMP_pressure;BME280_temperature;BME280_humidity;BME280_pressure;Samples;Min_cycle;Max_cycle;Signal;HPM_P1;HPM_P2
2023/05/25 00:00:07;;;;;;;5.65;3.20;;;19.70;60.60;;;;;;4981093;28;20544;-63
2023/05/25 00:02:34;;;;;;;4.80;3.40;;;19.70;60.60;;;;;;4979065;28;20080;-66
2023/05/25 00:04:59;;;;;;;4.35;2.78;;;19.70;60.60;;;;;;4977662;28;20045;-64
2023/05/25 00:07:25;;;;;;;4.18;3.22;;;19.70;60.50;;;;;;4982255;28;20056;-63
2023/05/25 00:09:51;;;;;;;5.93;2.95;;;19.70;60.60;;;;;;4980449;28;20034;-66
2023/05/25 00:12:16;;;;;;;4.93;3.20;;;19.70;60.50;;;;;;4984113;28;20138;-64
2023/05/25 00:14:42;;;;;;;2.83;2.42;;;19.70;60.50;;;;;;4983780;28;20030;-63
2023/05/25 00:17:09;;;;;;;4.75;2.80;;;19.80;60.70;;;;;;4981816;28;20041;-66
2023/05/25 00:19:35;;;;;;;3.25;2.47;;;19.70;60.50;;;;;;4982680;28;20409;-66
2023/05/25 00:22:01;;;;;;;4.65;3.03;;;19.70;60.50;;;;;;4984990;28;20034;-65
2023/05/25 00:24:30;;;;;;;3.67;3.00;;;19.70;60.50;;;;;;4985376;28;20092;-63
2023/05/25 00:26:56;;;;;;;4.50;3.28;;;19.70;60.50;;;;;;4982836;28;20022;-66
2023/05/25 00:29:22;;;;;;;4.30;3.08;;;19.70;60.40;;;;;;4980438;28;20509;-66
2023/05/25 00:31:49;;;;;;;3.80;2.42;;;19.70;60.50;;;;;;4983986;28;20081;-65
2023/05/25 00:34:15;;;;;;;3.28;2.72;;;19.70;60.60;;;;;;4982022;28;20027;-66
2023/05/25 00:36:42;;;;;;;2.90;2.58;;;19.70;60.50;;;;;;4981819;28;21066;-63
2023/05/25 00:39:08;;;;;;;4.18;2.80;;;19.60;60.50;;;;;;4981748;28;20640;-66
2023/05/25 00:41:40;;;;;;;3.35;2.40;;;19.70;60.60;;;;;;4981291;28;20034;-65
2023/05/25 00:44:06;;;;;;;4.47;2.40;;;19.70;60.50;;;;;;4982041;28;20750;-63
2023/05/25 00:46:33;;;;;;;4.03;3.05;;;19.60;60.50;;;;;;4982529;28;20038;-65
2023/05/25 00:48:59;;;;;;;3.58;2.47;;;19.60;60.50;;;;;;4983656;28;20110;-66
2023/05/25 00:51:25;;;;;;;2.92;2.67;;;19.60;60.50;;;;;;4984738;28;20574;-66
2023/05/25 00:53:51;;;;;;;2.90;2.38;;;19.70;60.50;;;;;;4981897;28;20037;-65
2023/05/25 00:56:21;;;;;;;4.13;2.47;;;19.60;60.70;;;;;;4982393;28;20659;-66
2023/05/25 00:58:50;;;;;;;4.03;3.10;;;19.60;60.50;;;;;;4980654;28;20483;-65
2023/05/25 01:01:17;;;;;;;3.00;2.20;;;19.60;60.50;;;;;;4982505;28;20053;-65
2023/05/25 01:03:47;;;;;;;4.20;2.13;;;19.60;60.50;;;;;;4975046;28;20573;-66
2023/05/25 01:06:14;;;;;;;4.35;2.60;;;19.60;60.50;;;;;;4980691;28;20038;-65
2023/05/25 01:08:48;;;;;;;3.80;2.50;;;19.60;60.60;;;;;;4984057;28;20030;-65
2023/05/25 01:11:15;;;;;;;4.78;2.75;;;19.60;60.50;;;;;;4981939;28;20054;-65
2023/05/25 01:13:41;;;;;;;3.20;2.42;;;19.60;60.60;;;;;;4982127;28;20030;-65
2023/05/25 01:16:08;;;;;;;3.17;2.10;;;19.60;60.40;;;;;;4978715;28;20039;-65
2023/05/25 01:18:33;;;;;;;4.10;2.28;;;19.60;60.50;;;;;;4982288;28;20420;-65
2023/05/25 01:21:13;;;;;;;3.53;2.58;;;19.60;60.50;;;;;;4981872;28;20034;-66
2023/05/25 01:23:49;;;;;;;3.92;2.67;;;19.60;60.70;;;;;;4978725;28;20042;-65
2023/05/25 01:26:19;;;;;;;4.05;2.47;;;19.60;60.60;;;;;;4981689;28;20073;-66
2023/05/25 01:28:51;;;;;;;3.28;1.88;;;19.60;60.50;;;;;;4980930;28;20467;-65
2023/05/25 01:31:19;;;;;;;4.90;2.45;;;19.60;60.70;;;;;;4981095;28;20118;-65
2023/05/25 01:33:45;;;;;;;5.65;1.95;;;19.60;60.60;;;;;;4976024;28;20031;-65
2023/05/25 01:36:11;;;;;;;2.90;2.28;;;19.60;60.50;;;;;;4980751;28;20042;-66
2023/05/25 01:38:37;;;;;;;2.67;2.20;;;19.60;60.60;;;;;;4979555;28;20026;-65
2023/05/25 01:41:03;;;;;;;2.90;1.98;;;19.50;60.60;;;;;;4979769;28;20046;-65
2023/05/25 01:43:29;;;;;;;3.00;1.98;;;19.50;60.70;;;;;;4980566;28;20038;-65
2023/05/25 01:46:01;;;;;;;3.78;2.20;;;19.50;60.50;;;;;;4979139;28;20078;-66
2023/05/25 01:48:46;;;;;;;2.22;1.60;;;19.60;60.50;;;;;;4981015;28;20043;-66
2023/05/25 01:51:23;;;;;;;3.22;1.83;;;19.50;60.60;;;;;;4979388;28;20133;-65
2023/05/25 01:53:57;;;;;;;3.50;2.10;;;19.60;60.50;;;;;;4983355;28;20066;-66
2023/05/25 01:56:25;;;;;;;2.88;2.03;;;19.50;60.50;;;;;;4978025;28;20520;-63
2023/05/25 01:58:52;;;;;;;3.75;2.25;;;19.50;60.60;;;;;;4981083;28;20042;-65
2023/05/25 02:01:19;;;;;;;2.08;1.63;;;19.50;60.50;;;;;;4980470;28;20214;-65
2023/05/25 02:03:47;;;;;;;3.67;1.98;;;19.50;60.60;;;;;;4981352;28;20100;-65
2023/05/25 02:06:15;;;;;;;3.45;1.90;;;19.50;60.50;;;;;;4981899;28;20631;-65
2023/05/25 02:08:40;;;;;;;2.65;1.90;;;19.50;60.60;;;;;;4983497;28;20030;-63
2023/05/25 02:11:06;;;;;;;3.75;1.90;;;19.50;60.60;;;;;;4981959;28;20034;-65
2023/05/25 02:13:31;;;;;;;3.00;1.73;;;19.50;60.60;;;;;;4981520;28;20023;-65
2023/05/25 02:15:56;;;;;;;1.60;1.45;;;19.50;60.50;;;;;;4980459;28;20101;-65
2023/05/25 02:18:22;;;;;;;2.50;1.80;;;19.50;60.70;;;;;;4982464;28;20039;-66
2023/05/25 02:20:48;;;;;;;2.00;1.77;;;19.50;60.60;;;;;;4983280;28;20614;-65
2023/05/25 02:23:13;;;;;;;4.93;2.53;;;19.50;60.60;;;;;;4982629;28;20027;-65
2023/05/25 02:25:41;;;;;;;2.38;1.80;;;19.50;60.60;;;;;;4982277;28;20129;-65
2023/05/25 02:28:06;;;;;;;2.50;2.03;;;19.40;60.60;;;;;;4977235;28;20101;-65
2023/05/25 02:30:32;;;;;;;2.17;1.70;;;19.50;60.60;;;;;;4976193;28;20187;-65
2023/05/25 02:32:57;;;;;;;2.22;1.70;;;19.40;60.60;;;;;;4981254;28;20042;-65
2023/05/25 02:35:23;;;;;;;3.08;2.00;;;19.40;60.50;;;;;;4984419;28;20046;-67
2023/05/25 02:37:48;;;;;;;2.65;1.55;;;19.40;60.50;;;;;;4983552;28;20031;-65
2023/05/25 02:40:14;;;;;;;2.00;1.52;;;19.40;60.50;;;;;;4985289;28;20784;-65
2023/05/25 02:42:40;;;;;;;4.57;1.73;;;19.40;60.50;;;;;;4981521;28;20023;-65
2023/05/25 02:45:09;;;;;;;3.53;1.92;;;19.40;60.50;;;;;;4983378;28;20128;-66
2023/05/25 02:47:35;;;;;;;2.22;1.80;;;19.40;60.50;;;;;;4985315;28;20042;-65
2023/05/25 02:50:01;;;;;;;3.35;1.95;;;19.40;60.50;;;;;;4985223;28;20493;-65
2023/05/25 02:52:26;;;;;;;2.88;1.60;;;19.40;60.50;;;;;;4980420;28;20130;-66
2023/05/25 02:54:52;;;;;;;2.03;1.77;;;19.40;60.50;;;;;;4985068;28;20138;-66
2023/05/25 02:57:17;;;;;;;3.08;1.70;;;19.40;60.50;;;;;;4980249;28;20402;-63
2023/05/25 02:59:42;;;;;;;2.20;1.67;;;19.40;60.50;;;;;;4982401;28;20058;-65
2023/05/25 03:02:08;;;;;;;2.13;1.45;;;19.40;60.60;;;;;;4985129;28;20117;-66
2023/05/25 03:04:36;;;;;;;2.53;1.77;;;19.40;60.50;;;;;;4984481;28;20046;-66
2023/05/25 03:07:02;;;;;;;2.47;1.63;;;19.40;60.50;;;;;;4978605;28;20579;-63
2023/05/25 03:09:27;;;;;;;1.98;1.52;;;19.40;60.60;;;;;;4984570;28;20038;-65
2023/05/25 03:11:53;;;;;;;2.20;1.52;;;19.40;60.50;;;;;;4981321;28;20382;-64
2023/05/25 03:14:18;;;;;;;2.47;1.60;;;19.40;60.60;;;;;;4983187;28;20088;-63
2023/05/25 03:16:44;;;;;;;2.78;1.67;;;19.40;60.50;;;;;;4985439;28;20030;-63
2023/05/25 03:19:10;;;;;;;2.47;1.67;;;19.40;60.50;;;;;;4984473;28;20033;-65
2023/05/25 03:21:37;;;;;;;3.05;1.92;;;19.30;60.50;;;;;;4985440;28;20558;-66
2023/05/25 03:24:02;;;;;;;1.70;1.58;;;19.30;60.50;;;;;;4981534;28;20109;-65
2023/05/25 03:26:29;;;;;;;1.75;1.45;;;19.40;60.50;;;;;;4983846;28;20168;-66
2023/05/25 03:28:54;;;;;;;2.13;1.23;;;19.30;60.60;;;;;;4982459;28;20034;-66
2023/05/25 03:31:20;;;;;;;2.17;1.80;;;19.30;60.60;;;;;;4984559;28;20038;-66
2023/05/25 03:33:45;;;;;;;1.80;1.45;;;19.30;60.60;;;;;;4985075;28;20046;-65
2023/05/25 03:36:12;;;;;;;1.85;1.52;;;19.30;60.50;;;;;;4983701;28;20086;-65
2023/05/25 03:38:38;;;;;;;1.80;1.52;;;19.30;60.60;;;;;;4985620;28;20109;-65
2023/05/25 03:41:04;;;;;;;2.88;1.63;;;19.30;60.70;;;;;;4979683;28;20125;-65
2023/05/25 03:43:30;;;;;;;1.70;1.60;;;19.30;60.60;;;;;;4979887;28;20096;-66
2023/05/25 03:45:55;;;;;;;1.65;1.50;;;19.30;60.60;;;;;;4979648;28;20497;-65
2023/05/25 03:48:21;;;;;;;1.88;1.60;;;19.30;60.70;;;;;;4981369;28;20043;-65
2023/05/25 03:50:46;;;;;;;2.35;1.80;;;19.30;60.50;;;;;;4983842;28;20038;-65
2023/05/25 03:53:12;;;;;;;2.17;1.52;;;19.30;60.60;;;;;;4981134;28;20038;-65
2023/05/25 03:55:37;;;;;;;2.75;1.60;;;19.30;60.60;;;;;;4983967;28;20042;-65
2023/05/25 03:58:03;;;;;;;3.20;1.95;;;19.20;60.50;;;;;;4985517;28;20164;-63
2023/05/25 04:00:28;;;;;;;2.17;1.40;;;19.30;60.60;;;;;;4985454;28;20030;-65
2023/05/25 04:02:55;;;;;;;1.90;1.70;;;19.30;60.50;;;;;;4984631;28;20049;-66
2023/05/25 04:05:21;;;;;;;1.45;1.35;;;19.20;60.60;;;;;;4981265;28;20042;-65
2023/05/25 04:07:46;;;;;;;1.90;1.55;;;19.20;60.50;;;;;;4983998;28;20050;-65
2023/05/25 04:10:12;;;;;;;1.92;1.67;;;19.20;60.50;;;;;;4978947;28;20505;-65
2023/05/25 04:12:37;;;;;;;2.47;1.67;;;19.20;60.50;;;;;;4979903;28;20109;-65
2023/05/25 04:15:04;;;;;;;1.58;1.42;;;19.20;60.50;;;;;;4980207;28;20117;-65
2023/05/25 04:17:30;;;;;;;2.10;1.70;;;19.20;60.50;;;;;;4984338;28;20543;-65
2023/05/25 04:19:55;;;;;;;2.25;1.63;;;19.20;60.50;;;;;;4983394;28;20096;-65
2023/05/25 04:22:21;;;;;;;2.00;1.42;;;19.20;60.50;;;;;;4976238;28;20040;-66
2023/05/25 04:24:47;;;;;;;3.10;1.63;;;19.20;60.50;;;;;;4983873;28;20212;-65
2023/05/25 04:27:13;;;;;;;2.35;1.90;;;19.20;60.50;;;;;;4983237;28;20119;-65
2023/05/25 04:29:39;;;;;;;2.42;1.80;;;19.20;61.10;;;;;;4984106;28;20030;-66
2023/05/25 04:32:05;;;;;;;2.63;1.65;;;19.20;60.50;;;;;;4983717;28;20050;-66
2023/05/25 04:34:32;;;;;;;2.40;1.67;;;19.20;60.30;;;;;;4982792;28;20026;-65
2023/05/25 04:37:01;;;;;;;2.10;1.55;;;19.30;60.50;;;;;;4978838;28;20034;-66
2023/05/25 04:39:27;;;;;;;2.53;1.60;;;19.30;60.40;;;;;;4977739;28;20041;-65
2023/05/25 04:41:52;;;;;;;2.92;2.08;;;19.30;60.50;;;;;;4985304;28;20342;-66
2023/05/25 04:44:18;;;;;;;1.95;1.75;;;19.30;60.40;;;;;;4980494;28;20732;-66
2023/05/25 04:46:44;;;;;;;2.20;1.40;;;19.40;60.40;;;;;;4983096;28;20626;-66
2023/05/25 04:49:12;;;;;;;1.92;1.60;;;19.30;60.40;;;;;;4983839;28;20038;-66
2023/05/25 04:51:37;;;;;;;1.73;1.35;;;19.40;60.50;;;;;;4985078;28;20076;-67
2023/05/25 04:54:03;;;;;;;2.92;1.98;;;19.40;60.50;;;;;;4980719;28;20434;-65
2023/05/25 04:56:28;;;;;;;1.98;1.45;;;19.40;60.60;;;;;;4983697;28;20109;-65
2023/05/25 04:58:54;;;;;;;3.85;2.28;;;19.40;60.50;;;;;;4982829;28;20405;-66
2023/05/25 05:01:19;;;;;;;2.42;1.45;;;19.40;60.70;;;;;;4983147;28;20041;-66
2023/05/25 05:03:45;;;;;;;1.80;1.60;;;19.40;60.70;;;;;;4984457;28;20031;-67
2023/05/25 05:06:10;;;;;;;2.00;1.60;;;19.40;60.80;;;;;;4981471;28;20038;-66
2023/05/25 05:08:36;;;;;;;1.90;1.55;;;19.40;60.70;;;;;;4977176;28;20042;-66
2023/05/25 05:11:01;;;;;;;2.15;1.63;;;19.40;60.90;;;;;;4978885;28;20033;-66
2023/05/25 05:13:27;;;;;;;1.55;1.27;;;19.40;60.70;;;;;;4982355;28;20401;-67
2023/05/25 05:15:52;;;;;;;2.38;1.63;;;19.40;60.70;;;;;;4982394;28;20035;-66
2023/05/25 05:18:19;;;;;;;1.52;1.42;;;19.40;60.70;;;;;;4985164;28;20113;-66
2023/05/25 05:20:45;;;;;;;1.83;1.40;;;19.40;60.50;;;;;;4980056;28;20027;-65
2023/05/25 05:23:10;;;;;;;1.70;1.40;;;19.40;60.60;;;;;;4983343;28;20092;-66
2023/05/25 05:25:36;;;;;;;1.60;1.23;;;19.40;60.60;;;;;;4984100;28;20405;-66
2023/05/25 05:28:02;;;;;;;1.60;1.50;;;19.50;60.70;;;;;;4983881;28;20109;-66
2023/05/25 05:30:28;;;;;;;2.25;1.80;;;19.40;60.70;;;;;;4980278;28;20169;-64
2023/05/25 05:32:53;;;;;;;3.35;1.35;;;19.40;60.70;;;;;;4984000;28;20039;-67
2023/05/25 05:35:19;;;;;;;1.83;1.40;;;19.40;60.70;;;;;;4980846;28;20094;-66
2023/05/25 05:37:45;;;;;;;1.70;1.40;;;19.50;60.60;;;;;;4979643;28;20034;-65
2023/05/25 05:40:11;;;;;;;1.75;1.55;;;19.50;60.80;;;;;;4975579;28;20053;-67
2023/05/25 05:42:37;;;;;;;1.50;1.27;;;19.50;60.70;;;;;;4979770;28;20517;-65
2023/05/25 05:45:02;;;;;;;3.38;1.75;;;19.50;60.70;;;;;;4983651;28;20029;-69
2023/05/25 05:47:28;;;;;;;3.80;2.20;;;19.50;60.70;;;;;;4980874;28;20041;-66
2023/05/25 05:49:53;;;;;;;2.30;1.52;;;19.50;60.70;;;;;;4981973;28;20059;-67
2023/05/25 05:52:19;;;;;;;2.03;1.75;;;19.50;61.40;;;;;;4984369;28;20409;-63
2023/05/25 05:54:44;;;;;;;2.67;1.73;;;19.50;60.70;;;;;;4982503;28;20033;-67
2023/05/25 05:57:10;;;;;;;2.00;1.30;;;19.40;60.90;;;;;;4982442;28;20018;-65
2023/05/25 05:59:35;;;;;;;2.05;1.80;;;19.50;60.80;;;;;;4982843;28;20693;-65
2023/05/25 06:02:01;;;;;;;1.85;1.52;;;19.50;60.70;;;;;;4979050;28;20034;-66
2023/05/25 06:04:27;;;;;;;2.60;1.73;;;19.50;60.70;;;;;;4981638;28;20039;-66
2023/05/25 06:06:53;;;;;;;4.05;2.03;;;19.50;60.80;;;;;;4983124;28;20035;-65
2023/05/25 06:09:19;;;;;;;2.88;1.75;;;19.40;60.70;;;;;;4989712;28;20056;-67
2023/05/25 06:11:44;;;;;;;4.10;1.83;;;19.40;60.90;;;;;;4984248;28;20634;-66
2023/05/25 06:14:10;;;;;;;3.05;1.80;;;19.40;60.90;;;;;;4987090;28;20030;-69
2023/05/25 06:16:36;;;;;;;3.60;2.10;;;19.40;60.90;;;;;;4984819;28;20062;-63
2023/05/25 06:19:01;;;;;;;3.10;1.83;;;19.40;60.90;;;;;;4986321;28;20583;-67
2023/05/25 06:21:27;;;;;;;2.55;2.00;;;19.40;60.90;;;;;;4987300;28;20062;-65
2023/05/25 06:23:53;;;;;;;2.13;1.55;;;19.40;60.90;;;;;;4987542;28;20029;-68
2023/05/25 06:26:19;;;;;;;3.67;2.08;;;19.40;60.80;;;;;;4987549;28;20038;-63
2023/05/25 06:28:46;;;;;;;2.38;1.77;;;19.40;60.90;;;;;;4983846;28;20082;-65
2023/05/25 06:31:11;;;;;;;3.78;1.67;;;19.40;60.90;;;;;;4982747;28;20054;-67
2023/05/25 06:33:37;;;;;;;3.03;1.60;;;19.40;60.80;;;;;;4986070;28;20096;-67
2023/05/25 06:36:03;;;;;;;6.85;2.08;;;19.40;60.80;;;;;;4983262;28;20027;-67
2023/05/25 06:38:28;;;;;;;3.38;2.53;;;19.40;60.70;;;;;;4981588;28;20037;-67
2023/05/25 06:40:54;;;;;;;7.18;4.70;;;19.40;60.70;;;;;;4984018;28;20033;-66
2023/05/25 06:43:20;;;;;;;4.75;4.25;;;19.40;61.00;;;;;;4986767;28;20042;-67
2023/05/25 06:45:45;;;;;;;7.55;6.75;;;19.40;61.10;;;;;;4986097;28;20049;-66
2023/05/25 06:48:11;;;;;;;11.48;6.25;;;19.40;61.20;;;;;;4985347;28;20527;-66
2023/05/25 06:50:36;;;;;;;12.75;7.40;;;19.40;61.30;;;;;;4987080;28;20030;-67
2023/05/25 06:53:02;;;;;;;10.63;7.53;;;19.40;61.40;;;;;;4983564;28;20105;-66
2023/05/25 06:55:28;;;;;;;15.43;7.65;;;19.50;61.50;;;;;;4986979;28;20066;-67
2023/05/25 06:57:53;;;;;;;9.65;7.05;;;19.40;61.50;;;;;;4987776;28;20446;-67
2023/05/25 07:00:20;;;;;;;10.13;8.57;;;19.50;61.60;;;;;;4986438;28;20046;-67
2023/05/25 07:02:45;;;;;;;12.85;8.20;;;19.40;61.60;;;;;;4984376;28;20034;-67
2023/05/25 07:05:11;;;;;;;18.30;10.77;;;19.40;61.80;;;;;;4978623;28;20482;-66
2023/05/25 07:07:36;;;;;;;21.30;12.68;;;19.40;61.80;;;;;;4980374;28;20049;-68
2023/05/25 07:10:03;;;;;;;35.45;14.57;;;19.40;61.90;;;;;;4979332;28;20031;-67
2023/05/25 07:12:28;;;;;;;32.55;15.73;;;19.40;61.80;;;;;;4985735;28;20061;-66
2023/05/25 07:14:54;;;;;;;32.80;14.10;;;19.40;61.80;;;;;;4985372;28;20531;-67
2023/05/25 07:17:20;;;;;;;30.60;15.80;;;19.40;61.80;;;;;;4979219;28;20035;-66
2023/05/25 07:19:47;;;;;;;29.83;15.88;;;19.40;61.70;;;;;;4984302;28;20030;-64
2023/05/25 07:22:15;;;;;;;30.17;14.68;;;19.40;61.70;;;;;;4986796;28;20041;-66
2023/05/25 07:24:41;;;;;;;33.65;14.85;;;19.40;61.70;;;;;;4984753;28;20040;-66
2023/05/25 07:27:07;;;;;;;34.58;15.45;;;19.40;61.60;;;;;;4985193;28;20423;-67
2023/05/25 07:29:32;;;;;;;30.50;14.95;;;19.40;61.60;;;;;;4983877;28;20593;-67
2023/05/25 07:31:58;;;;;;;33.63;14.35;;;19.40;61.50;;;;;;4979126;28;20497;-67
2023/05/25 07:34:23;;;;;;;30.48;15.00;;;19.40;61.60;;;;;;4978149;28;20125;-67
2023/05/25 07:36:49;;;;;;;31.25;14.73;;;19.40;61.40;;;;;;4975465;28;20445;-67
2023/05/25 07:39:14;;;;;;;31.23;15.27;;;19.40;61.40;;;;;;4981113;28;20042;-67
2023/05/25 07:41:40;;;;;;;29.25;13.05;;;19.40;61.30;;;;;;4985405;28;20057;-67
2023/05/25 07:44:05;;;;;;;24.27;12.40;;;19.40;61.30;;;;;;4984861;28;20046;-67
2023/05/25 07:46:31;;;;;;;26.83;13.73;;;19.40;61.40;;;;;;4986081;28;20125;-67
2023/05/25 07:48:58;;;;;;;24.27;12.88;;;19.40;61.30;;;;;;4986471;28;20034;-68
2023/05/25 07:51:25;;;;;;;23.65;12.45;;;19.40;61.40;;;;;;4986038;28;20030;-68
2023/05/25 07:53:52;;;;;;;26.70;12.95;;;19.30;61.30;;;;;;4988013;28;20031;-67
2023/05/25 07:56:18;;;;;;;21.92;11.30;;;19.40;61.50;;;;;;4977057;28;20043;-67
2023/05/25 07:58:44;;;;;;;24.73;12.82;;;19.40;61.30;;;;;;4981343;28;20523;-67
2023/05/25 08:01:09;;;;;;;29.67;11.43;;;19.40;61.40;;;;;;4981117;28;20037;-66
2023/05/25 08:03:35;;;;;;;27.40;11.02;;;19.40;61.30;;;;;;4977269;28;20625;-67
2023/05/25 08:06:01;;;;;;;23.23;10.60;;;19.40;61.30;;;;;;4984972;28;20026;-67
2023/05/25 08:08:26;;;;;;;23.67;10.20;;;19.30;61.20;;;;;;4980826;28;20038;-66
2023/05/25 08:10:52;;;;;;;25.98;10.10;;;19.30;61.20;;;;;;4985104;28;20061;-66
2023/05/25 08:13:17;;;;;;;16.92;10.00;;;19.30;61.30;;;;;;4985055;28;20043;-67
2023/05/25 08:15:43;;;;;;;15.77;9.55;;;19.30;61.30;;;;;;4985191;28;20034;-67
2023/05/25 08:18:08;;;;;;;21.20;10.93;;;19.40;61.30;;;;;;4985509;28;20053;-67
2023/05/25 08:20:35;;;;;;;20.63;9.80;;;19.40;61.30;;;;;;4984600;28;20596;-67
2023/05/25 08:23:01;;;;;;;23.05;11.02;;;19.30;61.00;;;;;;4985518;28;20105;-67
2023/05/25 08:25:26;;;;;;;18.30;9.10;;;19.30;61.10;;;;;;4984614;28;20501;-65
2023/05/25 08:27:52;;;;;;;19.25;9.30;;;19.30;61.30;;;;;;4978734;28;20027;-66
2023/05/25 08:30:17;;;;;;;17.58;8.43;;;19.30;61.20;;;;;;4981761;28;20040;-66
2023/05/25 08:32:43;;;;;;;16.13;8.18;;;19.30;61.10;;;;;;4982864;28;20035;-64
2023/05/25 08:35:09;;;;;;;18.20;8.23;;;19.30;61.20;;;;;;4981124;28;20031;-67
2023/05/25 08:37:34;;;;;;;17.38;8.23;;;19.30;61.30;;;;;;4981197;28;20039;-67
2023/05/25 08:40:01;;;;;;;16.05;8.18;;;19.30;61.20;;;;;;4983814;28;20061;-67
2023/05/25 08:42:27;;;;;;;16.17;7.93;;;19.30;61.20;;;;;;4984316;28;20085;-67
2023/05/25 08:44:53;;;;;;;16.17;7.38;;;19.30;61.10;;;;;;4983322;28;20106;-67
2023/05/25 08:47:21;;;;;;;16.90;7.40;;;19.30;61.00;;;;;;4983015;28;20038;-66
2023/05/25 08:49:48;;;;;;;12.13;7.15;;;19.30;61.10;;;;;;4982787;28;20038;-65
2023/05/25 08:52:19;;;;;;;13.45;7.28;;;19.30;61.00;;;;;;4985262;28;20081;-67
2023/05/25 08:54:49;;;;;;;12.60;6.53;;;19.20;61.20;;;;;;4983467;28;20496;-64
2023/05/25 08:57:42;;;;;;;14.13;6.50;;;19.30;61.10;;;;;;4982101;28;20071;-67
2023/05/25 09:00:09;;;;;;;11.68;6.60;;;19.20;61.00;;;;;;4978204;28;20165;-66
2023/05/25 09:02:49;;;;;;;17.17;6.60;;;19.30;61.10;;;;;;4981071;28;20034;-66
2023/05/25 09:05:15;;;;;;;13.35;6.10;;;19.20;60.90;;;;;;4979183;28;20561;-67
2023/05/25 09:07:42;;;;;;;9.50;5.13;;;19.30;61.10;;;;;;4982843;28;20121;-67
2023/05/25 09:10:09;;;;;;;9.65;5.53;;;19.30;61.00;;;;;;4983551;28;20109;-67
2023/05/25 09:12:36;;;;;;;10.10;5.70;;;19.20;61.00;;;;;;4986260;28;20497;-67
2023/05/25 09:15:03;;;;;;;12.35;4.80;;;19.20;60.90;;;;;;4984433;28;20030;-67
2023/05/25 09:17:28;;;;;;;9.77;4.97;;;19.20;60.90;;;;;;4983956;28;20031;-66
2023/05/25 09:19:54;;;;;;;11.70;5.85;;;19.20;61.10;;;;;;4984789;28;20088;-65
2023/05/25 09:22:19;;;;;;;9.63;5.05;;;19.20;61.00;;;;;;4983711;28;20041;-65
2023/05/25 09:24:45;;;;;;;8.70;4.53;;;19.20;61.00;;;;;;4982677;28;20073;-64
2023/05/25 09:27:18;;;;;;;10.35;4.95;;;19.20;60.90;;;;;;4980499;28;20105;-67
2023/05/25 09:29:47;;;;;;;8.95;5.72;;;19.20;60.90;;;;;;4980474;28;20022;-63
2023/05/25 09:32:13;;;;;;;10.63;5.25;;;19.20;61.00;;;;;;4975142;28;20088;-67
2023/05/25 09:34:38;;;;;;;9.52;4.60;;;19.20;61.10;;;;;;4983297;28;20026;-66
2023/05/25 09:37:12;;;;;;;9.52;4.68;;;19.20;61.10;;;;;;4980702;28;20029;-67
2023/05/25 09:39:39;;;;;;;8.32;4.63;;;19.20;61.10;;;;;;4982678;28;20097;-67
2023/05/25 09:42:05;;;;;;;9.98;5.20;;;19.20;61.30;;;;;;4984219;28;20118;-67
2023/05/25 09:44:30;;;;;;;7.97;4.78;;;19.20;61.00;;;;;;4983949;28;20117;-67
2023/05/25 09:46:56;;;;;;;10.30;4.70;;;19.20;61.00;;;;;;4983942;28;20497;-66
2023/05/25 09:49:22;;;;;;;7.63;4.22;;;19.20;60.90;;;;;;4983227;28;20056;-67
2023/05/25 09:51:48;;;;;;;7.65;4.60;;;19.20;60.90;;;;;;4983304;28;20049;-68
2023/05/25 09:54:14;;;;;;;7.28;4.90;;;19.20;61.00;;;;;;4975755;28;20107;-68
2023/05/25 09:56:40;;;;;;;8.20;4.53;;;19.20;61.10;;;;;;4980329;28;20753;-68
2023/05/25 09:59:06;;;;;;;11.27;4.40;;;19.20;61.10;;;;;;4978144;28;20547;-68
2023/05/25 10:01:34;;;;;;;9.05;4.47;;;19.20;61.20;;;;;;4980082;28;20212;-69
2023/05/25 10:04:00;;;;;;;7.72;3.78;;;19.20;61.30;;;;;;4973806;28;20093;-69
2023/05/25 10:06:26;;;;;;;6.88;4.22;;;19.20;61.10;;;;;;4977015;28;20061;-68
2023/05/25 10:08:56;;;;;;;8.43;4.15;;;19.20;61.10;;;;;;4981944;28;20042;-68
2023/05/25 10:11:23;;;;;;;6.90;3.65;;;19.20;61.10;;;;;;4984128;28;20030;-68
2023/05/25 10:13:50;;;;;;;8.35;4.22;;;19.20;61.20;;;;;;4983642;28;20117;-70
2023/05/25 10:16:17;;;;;;;7.70;4.07;;;19.20;61.20;;;;;;4984927;28;20038;-69
2023/05/25 10:18:48;;;;;;;11.10;4.35;;;19.20;61.30;;;;;;4983693;28;20039;-70
2023/05/25 10:21:15;;;;;;;12.27;4.63;;;19.20;61.20;;;;;;4982270;28;20023;-68
2023/05/25 10:23:46;;;;;;;9.70;4.22;;;19.20;61.30;;;;;;4982027;28;20085;-68
2023/05/25 10:26:17;;;;;;;5.78;3.55;;;19.20;61.40;;;;;;4983754;28;20137;-68
2023/05/25 10:28:44;;;;;;;7.53;3.30;;;19.20;61.40;;;;;;4979869;28;20035;-69
2023/05/25 10:31:12;;;;;;;7.93;3.78;;;19.20;61.30;;;;;;4981649;28;20077;-69
2023/05/25 10:33:38;;;;;;;7.82;3.78;;;19.20;61.30;;;;;;4983004;28;20027;-69
2023/05/25 10:36:05;;;;;;;7.57;3.95;;;19.20;61.30;;;;;;4981009;28;20493;-69
2023/05/25 10:38:31;;;;;;;6.57;3.58;;;19.20;61.30;;;;;;4983661;28;20089;-69
2023/05/25 10:40:58;;;;;;;7.70;3.78;;;19.20;61.30;;;;;;4983833;28;20488;-68
2023/05/25 10:43:25;;;;;;;6.40;3.60;;;19.20;61.40;;;;;;4982634;28;20034;-66
2023/05/25 10:45:50;;;;;;;8.35;3.63;;;19.10;61.30;;;;;;4983038;28;20118;-69
2023/05/25 10:48:16;;;;;;;6.03;3.70;;;19.20;61.30;;;;;;4984026;28;20121;-69
2023/05/25 10:50:48;;;;;;;6.43;3.42;;;19.20;61.30;;;;;;4981316;28;20727;-67
2023/05/25 10:53:15;;;;;;;9.77;3.42;;;19.20;61.40;;;;;;4981473;28;20500;-68
2023/05/25 10:55:42;;;;;;;5.05;3.20;;;19.20;61.40;;;;;;4983438;28;20038;-67
2023/05/25 10:58:10;;;;;;;8.77;3.40;;;19.20;61.40;;;;;;4983192;28;20030;-67
2023/05/25 11:00:36;;;;;;;6.43;3.42;;;19.10;61.30;;;;;;4986250;28;20034;-67
2023/05/25 11:03:02;;;;;;;4.97;2.95;;;19.20;61.40;;;;;;4982876;28;20097;-69
2023/05/25 11:05:34;;;;;;;6.50;3.38;;;19.10;61.30;;;;;;4982367;28;20501;-66
2023/05/25 11:08:03;;;;;;;6.40;3.30;;;19.10;61.40;;;;;;4984467;28;20463;-69
2023/05/25 11:10:47;;;;;;;7.55;3.50;;;19.10;61.30;;;;;;4976709;28;20034;-69
2023/05/25 11:13:30;;;;;;;8.98;3.63;;;19.20;61.30;;;;;;4984499;28;20462;-68
2023/05/25 11:16:17;;;;;;;5.72;3.60;;;19.20;61.40;;;;;;4982044;28;20030;-66
2023/05/25 11:18:47;;;;;;;6.40;3.40;;;19.20;61.30;;;;;;4983139;28;20099;-69
2023/05/25 11:21:23;;;;;;;6.00;3.72;;;19.10;61.30;;;;;;4983043;28;20485;-68
2023/05/25 11:23:55;;;;;;;;;;;19.10;61.20;;;;;;4982825;28;20038;-68
2023/05/25 11:26:22;;;;;;;5.93;3.10;;;19.10;61.20;;;;;;4981916;28;19914;-68
2023/05/25 11:28:50;;;;;;;5.45;3.28;;;19.10;61.30;;;;;;4981000;28;20120;-68
2023/05/25 11:31:16;;;;;;;5.40;3.42;;;19.10;61.20;;;;;;4980193;28;20030;-68
2023/05/25 11:33:43;;;;;;;7.18;3.25;;;19.20;61.30;;;;;;4983261;28;20038;-68
2023/05/25 11:36:10;;;;;;;5.65;3.10;;;19.10;61.20;;;;;;4986034;28;20027;-68
2023/05/25 11:38:44;;;;;;;9.02;3.53;;;19.20;61.20;;;;;;4985733;28;20041;-68
2023/05/25 11:41:36;;;;;;;6.20;3.55;;;19.10;61.20;;;;;;4985720;28;20057;-68
2023/05/25 11:44:05;;;;;;;6.72;3.20;;;19.20;61.20;;;;;;4981453;28;20042;-68
2023/05/25 11:46:31;;;;;;;4.00;3.17;;;19.20;61.20;;;;;;4982193;28;20062;-69
2023/05/25 11:48:57;;;;;;;4.28;3.30;;;19.10;61.10;;;;;;4984113;28;20038;-68
2023/05/25 11:51:25;;;;;;;7.60;3.22;;;19.20;61.20;;;;;;4986211;28;20174;-68
2023/05/25 11:53:50;;;;;;;5.50;3.38;;;19.10;61.10;;;;;;4985926;28;20726;-68
2023/05/25 11:56:17;;;;;;;4.90;3.05;;;19.10;61.10;;;;;;4981916;28;20572;-69
2023/05/25 11:58:46;;;;;;;5.63;3.33;;;19.10;61.20;;;;;;4981205;28;20034;-69
2023/05/25 12:01:19;;;;;;;4.03;2.90;;;19.20;61.20;;;;;;4979900;28;20035;-68
2023/05/25 12:03:46;;;;;;;5.57;2.90;;;19.10;61.10;;;;;;4985627;28;20099;-68
2023/05/25 12:06:25;;;;;;;5.15;3.08;;;19.20;61.20;;;;;;4985481;28;20509;-67
2023/05/25 12:08:51;;;;;;;5.97;2.95;;;19.20;61.20;;;;;;4985303;28;20113;-67
2023/05/25 12:11:17;;;;;;;5.00;3.45;;;19.20;61.20;;;;;;4986337;28;20719;-68
2023/05/25 12:13:42;;;;;;;5.68;3.20;;;19.10;61.10;;;;;;4985427;28;20057;-68
2023/05/25 12:16:08;;;;;;;6.45;3.45;;;19.10;61.70;;;;;;4985106;28;20646;-68
2023/05/25 12:18:34;;;;;;;4.13;2.88;;;19.20;61.10;;;;;;4984409;28;20726;-66
2023/05/25 12:20:59;;;;;;;7.50;3.50;;;19.20;61.20;;;;;;4979149;28;20287;-68
2023/05/25 12:23:25;;;;;;;5.55;3.10;;;19.20;61.20;;;;;;4985339;28;20536;-69
2023/05/25 12:26:15;;;;;;;8.00;2.80;;;19.20;61.20;;;;;;4976556;28;20053;-68
2023/05/25 12:28:56;;;;;;;7.28;3.30;;;19.20;61.20;;;;;;4983411;28;20034;-69
2023/05/25 12:31:23;;;;;;;6.18;3.42;;;19.20;61.20;;;;;;4984755;28;20038;-68
2023/05/25 12:34:06;;;;;;;4.55;2.83;;;19.20;61.20;;;;;;4984842;28;20062;-69
2023/05/25 12:36:37;;;;;;;3.97;2.90;;;19.20;61.10;;;;;;4981686;28;20026;-68
2023/05/25 12:39:04;;;;;;;5.72;3.00;;;19.20;61.10;;;;;;4983804;28;20026;-66
2023/05/25 12:41:29;;;;;;;3.80;2.80;;;19.20;61.10;;;;;;4984305;28;20042;-68